sensor_id;sensor_type;location;lat;lon;timestamp;P1;durP1;ratioP1;P2;durP2;ratioP2
5117;SDS011;2578;51.622;7.046;2023-11-21T00:01:53;30.97;;;12.17;;
5117;SDS011;2578;51.622;7.046;2023-11-21T00:04:19;31.60;;;12.80;;
5117;SDS011;2578;51.622;7.046;2023-11-21T00:06:45;31.30;;;12.60;;
5117;SDS011;2578;51.622;7.046;2023-11-21T00:09:12;34.13;;;13.07;;
5117;SDS011;2578;51.622;7.046;2023-11-21T00:11:40;31.90;;;13.00;;
5117;SDS011;2578;51.622;7.046;2023-11-21T00:14:06;37.70;;;14.53;;
5117;SDS011;2578;51.622;7.046;2023-11-21T00:16:33;41.70;;;14.53;;
5117;SDS011;2578;51.622;7.046;2023-11-21T00:18:59;33.60;;;12.73;;
5117;SDS011;2578;51.622;7.046;2023-11-21T00:21:24;31.80;;;12.53;;
5117;SDS011;2578;51.622;7.046;2023-11-21T00:23:50;32.00;;;12.30;;
5117;SDS011;2578;51.622;7.046;2023-11-21T00:26:16;31.30;;;11.60;;
5117;SDS011;2578;51.622;7.046;2023-11-21T00:28:41;31.70;;;12.33;;
5117;SDS011;2578;51.622;7.046;2023-11-21T00:31:07;33.37;;;14.77;;
5117;SDS011;2578;51.622;7.046;2023-11-21T00:33:33;31.23;;;11.67;;
5117;SDS011;2578;51.622;7.046;2023-11-21T00:35:58;31.30;;;11.60;;
5117;SDS011;2578;51.622;7.046;2023-11-21T00:38:25;31.40;;;11.30;;
5117;SDS011;2578;51.622;7.046;2023-11-21T00:40:52;31.90;;;12.20;;
5117;SDS011;2578;51.622;7.046;2023-11-21T00:43:21;34.53;;;12.87;;
5117;SDS011;2578;51.622;7.046;2023-11-21T00:45:49;31.30;;;11.50;;
5117;SDS011;2578;51.622;7.046;2023-11-21T00:48:16;31.60;;;11.90;;
5117;SDS011;2578;51.622;7.046;2023-11-21T00:50:41;32.50;;;12.57;;
5117;SDS011;2578;51.622;7.046;2023-11-21T00:53:07;36.90;;;17.63;;
5117;SDS011;2578;51.622;7.046;2023-11-21T00:55:33;31.60;;;11.80;;
5117;SDS011;2578;51.622;7.046;2023-11-21T00:58:00;32.10;;;12.83;;
5117;SDS011;2578;51.622;7.046;2023-11-21T01:00:28;31.30;;;11.40;;
5117;SDS011;2578;51.622;7.046;2023-11-21T01:02:53;31.50;;;11.73;;
5117;SDS011;2578;51.622;7.046;2023-11-21T01:05:19;31.90;;;12.07;;
5117;SDS011;2578;51.622;7.046;2023-11-21T01:07:45;31.90;;;12.20;;
5117;SDS011;2578;51.622;7.046;2023-11-21T01:10:10;31.80;;;12.10;;
5117;SDS011;2578;51.622;7.046;2023-11-21T01:12:36;32.27;;;12.93;;
5117;SDS011;2578;51.622;7.046;2023-11-21T01:15:03;32.60;;;13.30;;
5117;SDS011;2578;51.622;7.046;2023-11-21T01:17:32;32.70;;;13.43;;
5117;SDS011;2578;51.622;7.046;2023-11-21T01:19:59;32.80;;;13.40;;
5117;SDS011;2578;51.622;7.046;2023-11-21T01:22:25;32.30;;;13.10;;
5117;SDS011;2578;51.622;7.046;2023-11-21T01:24:54;32.77;;;13.33;;
5117;SDS011;2578;51.622;7.046;2023-11-21T01:27:21;33.17;;;14.10;;
5117;SDS011;2578;51.622;7.046;2023-11-21T01:29:46;32.93;;;13.70;;
5117;SDS011;2578;51.622;7.046;2023-11-21T01:32:12;33.27;;;13.90;;
5117;SDS011;2578;51.622;7.046;2023-11-21T01:34:37;32.93;;;13.57;;
5117;SDS011;2578;51.622;7.046;2023-11-21T01:37:03;33.50;;;14.17;;
5117;SDS011;2578;51.622;7.046;2023-11-21T01:39:29;33.40;;;13.77;;
5117;SDS011;2578;51.622;7.046;2023-11-21T01:41:55;32.93;;;13.90;;
5117;SDS011;2578;51.622;7.046;2023-11-21T01:44:23;33.60;;;13.90;;
5117;SDS011;2578;51.622;7.046;2023-11-21T01:46:49;33.80;;;14.40;;
5117;SDS011;2578;51.622;7.046;2023-11-21T01:49:16;34.30;;;14.60;;
5117;SDS011;2578;51.622;7.046;2023-11-21T01:51:43;34.40;;;14.83;;
5117;SDS011;2578;51.622;7.046;2023-11-21T01:54:12;34.47;;;15.20;;
5117;SDS011;2578;51.622;7.046;2023-11-21T01:56:38;34.63;;;15.10;;
5117;SDS011;2578;51.622;7.046;2023-11-21T01:59:04;34.87;;;15.23;;
5117;SDS011;2578;51.622;7.046;2023-11-21T02:01:32;35.20;;;15.40;;
5117;SDS011;2578;51.622;7.046;2023-11-21T02:03:58;35.30;;;15.70;;
5117;SDS011;2578;51.622;7.046;2023-11-21T02:06:24;35.20;;;15.80;;
5117;SDS011;2578;51.622;7.046;2023-11-21T02:08:50;35.50;;;15.80;;
5117;SDS011;2578;51.622;7.046;2023-11-21T02:11:16;35.40;;;15.60;;
5117;SDS011;2578;51.622;7.046;2023-11-21T02:13:44;35.17;;;15.77;;
5117;SDS011;2578;51.622;7.046;2023-11-21T02:16:10;35.80;;;16.03;;
5117;SDS011;2578;51.622;7.046;2023-11-21T02:18:38;34.73;;;16.20;;
5117;SDS011;2578;51.622;7.046;2023-11-21T02:21:04;35.87;;;16.30;;
5117;SDS011;2578;51.622;7.046;2023-11-21T02:23:30;37.77;;;18.03;;
5117;SDS011;2578;51.622;7.046;2023-11-21T02:25:56;36.33;;;16.70;;
5117;SDS011;2578;51.622;7.046;2023-11-21T02:28:21;36.30;;;16.70;;
5117;SDS011;2578;51.622;7.046;2023-11-21T02:30:51;35.77;;;16.70;;
5117;SDS011;2578;51.622;7.046;2023-11-21T02:33:21;36.20;;;16.90;;
5117;SDS011;2578;51.622;7.046;2023-11-21T02:35:47;36.27;;;16.63;;
5117;SDS011;2578;51.622;7.046;2023-11-21T02:38:13;36.70;;;17.00;;
5117;SDS011;2578;51.622;7.046;2023-11-21T02:40:39;36.80;;;17.00;;
5117;SDS011;2578;51.622;7.046;2023-11-21T02:43:05;36.77;;;17.10;;
5117;SDS011;2578;51.622;7.046;2023-11-21T02:45:30;37.00;;;17.10;;
5117;SDS011;2578;51.622;7.046;2023-11-21T02:47:56;36.10;;;17.03;;
5117;SDS011;2578;51.622;7.046;2023-11-21T02:50:22;35.90;;;16.30;;
5117;SDS011;2578;51.622;7.046;2023-11-21T02:52:48;35.30;;;16.40;;
5117;SDS011;2578;51.622;7.046;2023-11-21T02:55:14;35.80;;;16.40;;
5117;SDS011;2578;51.622;7.046;2023-11-21T02:57:40;36.00;;;16.50;;
5117;SDS011;2578;51.622;7.046;2023-11-21T03:00:06;36.40;;;16.60;;
5117;SDS011;2578;51.622;7.046;2023-11-21T03:02:32;36.07;;;16.60;;
5117;SDS011;2578;51.622;7.046;2023-11-21T03:05:01;36.20;;;16.40;;
5117;SDS011;2578;51.622;7.046;2023-11-21T03:07:27;36.17;;;16.50;;
5117;SDS011;2578;51.622;7.046;2023-11-21T03:09:53;36.37;;;16.80;;
5117;SDS011;2578;51.622;7.046;2023-11-21T03:12:18;36.10;;;16.90;;
5117;SDS011;2578;51.622;7.046;2023-11-21T03:14:44;36.50;;;17.30;;
5117;SDS011;2578;51.622;7.046;2023-11-21T03:17:10;35.80;;;16.20;;
5117;SDS011;2578;51.622;7.046;2023-11-21T03:19:36;36.30;;;16.70;;
5117;SDS011;2578;51.622;7.046;2023-11-21T03:22:02;36.60;;;17.10;;
5117;SDS011;2578;51.622;7.046;2023-11-21T03:24:29;36.40;;;17.00;;
5117;SDS011;2578;51.622;7.046;2023-11-21T03:26:55;36.40;;;17.13;;
5117;SDS011;2578;51.622;7.046;2023-11-21T03:29:21;36.50;;;17.20;;
5117;SDS011;2578;51.622;7.046;2023-11-21T03:31:46;36.27;;;16.87;;
5117;SDS011;2578;51.622;7.046;2023-11-21T03:34:16;36.40;;;17.10;;
5117;SDS011;2578;51.622;7.046;2023-11-21T03:36:47;36.10;;;16.70;;
5117;SDS011;2578;51.622;7.046;2023-11-21T03:39:13;35.63;;;16.17;;
5117;SDS011;2578;51.622;7.046;2023-11-21T03:41:39;35.80;;;16.20;;
5117;SDS011;2578;51.622;7.046;2023-11-21T03:44:04;36.20;;;16.70;;
5117;SDS011;2578;51.622;7.046;2023-11-21T03:46:30;36.37;;;17.20;;
5117;SDS011;2578;51.622;7.046;2023-11-21T03:48:56;36.10;;;16.40;;
5117;SDS011;2578;51.622;7.046;2023-11-21T03:51:21;36.00;;;16.20;;
5117;SDS011;2578;51.622;7.046;2023-11-21T03:53:47;35.90;;;16.47;;
5117;SDS011;2578;51.622;7.046;2023-11-21T03:56:13;35.47;;;15.87;;
5117;SDS011;2578;51.622;7.046;2023-11-21T03:58:39;36.00;;;16.30;;
5117;SDS011;2578;51.622;7.046;2023-11-21T04:01:05;35.93;;;16.70;;
5117;SDS011;2578;51.622;7.046;2023-11-21T04:03:30;36.43;;;17.10;;
5117;SDS011;2578;51.622;7.046;2023-11-21T04:05:56;36.10;;;16.90;;
5117;SDS011;2578;51.622;7.046;2023-11-21T04:08:22;35.80;;;16.77;;
5117;SDS011;2578;51.622;7.046;2023-11-21T04:10:47;35.70;;;16.20;;
5117;SDS011;2578;51.622;7.046;2023-11-21T04:13:13;36.23;;;16.40;;
5117;SDS011;2578;51.622;7.046;2023-11-21T04:15:39;35.90;;;16.20;;
5117;SDS011;2578;51.622;7.046;2023-11-21T04:18:05;36.00;;;16.20;;
5117;SDS011;2578;51.622;7.046;2023-11-21T04:20:30;35.80;;;16.20;;
5117;SDS011;2578;51.622;7.046;2023-11-21T04:22:57;36.10;;;16.70;;
5117;SDS011;2578;51.622;7.046;2023-11-21T04:25:22;35.17;;;15.60;;
5117;SDS011;2578;51.622;7.046;2023-11-21T04:27:48;35.50;;;15.80;;
5117;SDS011;2578;51.622;7.046;2023-11-21T04:30:14;35.00;;;15.60;;
5117;SDS011;2578;51.622;7.046;2023-11-21T04:32:40;35.80;;;16.10;;
5117;SDS011;2578;51.622;7.046;2023-11-21T04:35:07;35.60;;;15.80;;
5117;SDS011;2578;51.622;7.046;2023-11-21T04:37:33;36.00;;;16.57;;
5117;SDS011;2578;51.622;7.046;2023-11-21T04:39:59;35.37;;;15.70;;
5117;SDS011;2578;51.622;7.046;2023-11-21T04:42:25;36.00;;;16.03;;
5117;SDS011;2578;51.622;7.046;2023-11-21T04:44:50;36.07;;;16.30;;
5117;SDS011;2578;51.622;7.046;2023-11-21T04:47:17;36.30;;;16.20;;
5117;SDS011;2578;51.622;7.046;2023-11-21T04:49:45;37.90;;;18.47;;
5117;SDS011;2578;51.622;7.046;2023-11-21T04:52:14;36.60;;;16.97;;
5117;SDS011;2578;51.622;7.046;2023-11-21T04:54:40;37.93;;;16.60;;
5117;SDS011;2578;51.622;7.046;2023-11-21T04:57:05;39.13;;;19.10;;
5117;SDS011;2578;51.622;7.046;2023-11-21T04:59:32;36.27;;;16.40;;
5117;SDS011;2578;51.622;7.046;2023-11-21T05:01:59;36.23;;;16.70;;
5117;SDS011;2578;51.622;7.046;2023-11-21T05:04:25;38.60;;;18.60;;
5117;SDS011;2578;51.622;7.046;2023-11-21T05:06:51;36.67;;;17.30;;
5117;SDS011;2578;51.622;7.046;2023-11-21T05:09:16;36.80;;;17.73;;
5117;SDS011;2578;51.622;7.046;2023-11-21T05:11:42;36.00;;;16.50;;
5117;SDS011;2578;51.622;7.046;2023-11-21T05:14:08;35.80;;;16.40;;
5117;SDS011;2578;51.622;7.046;2023-11-21T05:16:34;35.30;;;15.60;;
5117;SDS011;2578;51.622;7.046;2023-11-21T05:19:00;35.67;;;15.87;;
5117;SDS011;2578;51.622;7.046;2023-11-21T05:21:26;35.60;;;16.10;;
5117;SDS011;2578;51.622;7.046;2023-11-21T05:23:52;35.90;;;16.13;;
5117;SDS011;2578;51.622;7.046;2023-11-21T05:26:18;35.70;;;15.70;;
5117;SDS011;2578;51.622;7.046;2023-11-21T05:28:44;35.47;;;16.10;;
5117;SDS011;2578;51.622;7.046;2023-11-21T05:31:09;35.47;;;15.70;;
5117;SDS011;2578;51.622;7.046;2023-11-21T05:33:35;35.70;;;16.00;;
5117;SDS011;2578;51.622;7.046;2023-11-21T05:36:01;35.90;;;15.90;;
5117;SDS011;2578;51.622;7.046;2023-11-21T05:38:27;35.97;;;15.90;;
5117;SDS011;2578;51.622;7.046;2023-11-21T05:40:53;35.80;;;15.90;;
5117;SDS011;2578;51.622;7.046;2023-11-21T05:43:19;35.80;;;15.90;;
5117;SDS011;2578;51.622;7.046;2023-11-21T05:45:44;36.00;;;15.80;;
5117;SDS011;2578;51.622;7.046;2023-11-21T05:48:10;36.10;;;15.80;;
5117;SDS011;2578;51.622;7.046;2023-11-21T05:50:36;35.80;;;15.70;;
5117;SDS011;2578;51.622;7.046;2023-11-21T05:53:03;35.90;;;16.00;;
5117;SDS011;2578;51.622;7.046;2023-11-21T05:55:28;35.97;;;15.73;;
5117;SDS011;2578;51.622;7.046;2023-11-21T05:57:54;36.13;;;16.03;;
5117;SDS011;2578;51.622;7.046;2023-11-21T06:00:20;36.20;;;16.30;;
5117;SDS011;2578;51.622;7.046;2023-11-21T06:02:50;36.60;;;16.70;;
5117;SDS011;2578;51.622;7.046;2023-11-21T06:05:17;37.20;;;17.83;;
5117;SDS011;2578;51.622;7.046;2023-11-21T06:07:44;36.33;;;16.50;;
5117;SDS011;2578;51.622;7.046;2023-11-21T06:10:10;36.60;;;16.40;;
5117;SDS011;2578;51.622;7.046;2023-11-21T06:12:38;36.30;;;16.30;;
5117;SDS011;2578;51.622;7.046;2023-11-21T06:15:05;36.17;;;16.00;;
5117;SDS011;2578;51.622;7.046;2023-11-21T06:17:34;36.30;;;16.00;;
5117;SDS011;2578;51.622;7.046;2023-11-21T06:20:03;36.00;;;15.83;;
5117;SDS011;2578;51.622;7.046;2023-11-21T06:22:34;35.40;;;15.30;;
5117;SDS011;2578;51.622;7.046;2023-11-21T06:25:04;35.10;;;14.80;;
5117;SDS011;2578;51.622;7.046;2023-11-21T06:27:40;34.93;;;14.90;;
5117;SDS011;2578;51.622;7.046;2023-11-21T06:30:06;35.70;;;15.30;;
5117;SDS011;2578;51.622;7.046;2023-11-21T06:32:34;35.60;;;15.70;;
5117;SDS011;2578;51.622;7.046;2023-11-21T06:35:01;35.20;;;15.97;;
5117;SDS011;2578;51.622;7.046;2023-11-21T06:37:30;36.00;;;17.13;;
5117;SDS011;2578;51.622;7.046;2023-11-21T06:39:57;34.07;;;15.07;;
5117;SDS011;2578;51.622;7.046;2023-11-21T06:42:27;34.40;;;15.07;;
5117;SDS011;2578;51.622;7.046;2023-11-21T06:44:54;36.60;;;16.93;;
5117;SDS011;2578;51.622;7.046;2023-11-21T06:47:22;36.20;;;16.30;;
5117;SDS011;2578;51.622;7.046;2023-11-21T06:49:50;41.83;;;17.23;;
5117;SDS011;2578;51.622;7.046;2023-11-21T06:52:17;37.20;;;15.80;;
5117;SDS011;2578;51.622;7.046;2023-11-21T06:54:43;36.77;;;16.83;;
5117;SDS011;2578;51.622;7.046;2023-11-21T06:57:10;37.23;;;16.10;;
5117;SDS011;2578;51.622;7.046;2023-11-21T06:59:36;34.27;;;14.63;;
5117;SDS011;2578;51.622;7.046;2023-11-21T07:02:02;33.70;;;13.70;;
5117;SDS011;2578;51.622;7.046;2023-11-21T07:04:29;35.27;;;14.70;;
5117;SDS011;2578;51.622;7.046;2023-11-21T07:06:55;33.90;;;14.10;;
5117;SDS011;2578;51.622;7.046;2023-11-21T07:09:21;33.80;;;13.80;;
5117;SDS011;2578;51.622;7.046;2023-11-21T07:11:49;33.77;;;13.60;;
5117;SDS011;2578;51.622;7.046;2023-11-21T07:14:15;33.90;;;14.00;;
5117;SDS011;2578;51.622;7.046;2023-11-21T07:16:42;34.17;;;14.10;;
5117;SDS011;2578;51.622;7.046;2023-11-21T07:19:07;33.90;;;13.90;;
5117;SDS011;2578;51.622;7.046;2023-11-21T07:21:34;33.87;;;14.10;;
5117;SDS011;2578;51.622;7.046;2023-11-21T07:24:00;34.20;;;14.40;;
5117;SDS011;2578;51.622;7.046;2023-11-21T07:26:31;34.90;;;14.97;;
5117;SDS011;2578;51.622;7.046;2023-11-21T07:28:58;34.20;;;14.10;;
5117;SDS011;2578;51.622;7.046;2023-11-21T07:31:24;33.70;;;14.00;;
5117;SDS011;2578;51.622;7.046;2023-11-21T07:33:49;34.53;;;14.80;;
5117;SDS011;2578;51.622;7.046;2023-11-21T07:36:16;34.37;;;14.33;;
5117;SDS011;2578;51.622;7.046;2023-11-21T07:38:48;34.57;;;14.17;;
5117;SDS011;2578;51.622;7.046;2023-11-21T07:41:14;33.30;;;13.87;;
5117;SDS011;2578;51.622;7.046;2023-11-21T07:43:41;33.63;;;13.63;;
5117;SDS011;2578;51.622;7.046;2023-11-21T07:46:07;33.03;;;13.00;;
5117;SDS011;2578;51.622;7.046;2023-11-21T07:48:33;33.20;;;13.20;;
5117;SDS011;2578;51.622;7.046;2023-11-21T07:51:00;32.80;;;13.00;;
5117;SDS011;2578;51.622;7.046;2023-11-21T07:53:27;32.93;;;13.10;;
5117;SDS011;2578;51.622;7.046;2023-11-21T07:55:55;34.30;;;14.70;;
5117;SDS011;2578;51.622;7.046;2023-11-21T07:58:23;34.60;;;14.70;;
5117;SDS011;2578;51.622;7.046;2023-11-21T08:00:49;35.00;;;14.57;;
5117;SDS011;2578;51.622;7.046;2023-11-21T08:03:15;34.80;;;14.80;;
5117;SDS011;2578;51.622;7.046;2023-11-21T08:05:41;33.47;;;13.67;;
5117;SDS011;2578;51.622;7.046;2023-11-21T08:08:07;35.20;;;15.07;;
5117;SDS011;2578;51.622;7.046;2023-11-21T08:10:33;35.70;;;15.97;;
5117;SDS011;2578;51.622;7.046;2023-11-21T08:13:00;41.63;;;14.37;;
5117;SDS011;2578;51.622;7.046;2023-11-21T08:15:26;40.00;;;17.07;;
5117;SDS011;2578;51.622;7.046;2023-11-21T08:17:52;38.13;;;15.70;;
5117;SDS011;2578;51.622;7.046;2023-11-21T08:20:17;55.27;;;17.03;;
5117;SDS011;2578;51.622;7.046;2023-11-21T08:22:43;38.90;;;16.20;;
5117;SDS011;2578;51.622;7.046;2023-11-21T08:25:09;37.47;;;16.67;;
5117;SDS011;2578;51.622;7.046;2023-11-21T08:27:35;48.83;;;15.13;;
5117;SDS011;2578;51.622;7.046;2023-11-21T08:30:02;38.10;;;15.87;;
5117;SDS011;2578;51.622;7.046;2023-11-21T08:32:28;37.67;;;13.53;;
5117;SDS011;2578;51.622;7.046;2023-11-21T08:34:57;33.20;;;13.20;;
5117;SDS011;2578;51.622;7.046;2023-11-21T08:37:23;34.37;;;13.90;;
5117;SDS011;2578;51.622;7.046;2023-11-21T08:39:49;33.17;;;12.80;;
5117;SDS011;2578;51.622;7.046;2023-11-21T08:42:14;33.67;;;14.00;;
5117;SDS011;2578;51.622;7.046;2023-11-21T08:44:40;32.97;;;13.20;;
5117;SDS011;2578;51.622;7.046;2023-11-21T08:47:06;33.57;;;13.73;;
5117;SDS011;2578;51.622;7.046;2023-11-21T08:49:32;33.20;;;12.73;;
5117;SDS011;2578;51.622;7.046;2023-11-21T08:51:58;33.20;;;12.83;;
5117;SDS011;2578;51.622;7.046;2023-11-21T08:54:25;35.90;;;15.37;;
5117;SDS011;2578;51.622;7.046;2023-11-21T08:56:54;33.73;;;13.70;;
5117;SDS011;2578;51.622;7.046;2023-11-21T08:59:20;33.40;;;13.60;;
5117;SDS011;2578;51.622;7.046;2023-11-21T09:01:46;35.53;;;14.30;;
5117;SDS011;2578;51.622;7.046;2023-11-21T09:04:12;36.40;;;13.20;;
5117;SDS011;2578;51.622;7.046;2023-11-21T09:06:38;32.80;;;12.23;;
5117;SDS011;2578;51.622;7.046;2023-11-21T09:09:04;36.93;;;13.60;;
5117;SDS011;2578;51.622;7.046;2023-11-21T09:11:31;33.90;;;13.20;;
5117;SDS011;2578;51.622;7.046;2023-11-21T09:13:59;33.67;;;14.23;;
5117;SDS011;2578;51.622;7.046;2023-11-21T09:16:25;32.57;;;12.07;;
5117;SDS011;2578;51.622;7.046;2023-11-21T09:18:50;32.80;;;12.40;;
5117;SDS011;2578;51.622;7.046;2023-11-21T09:21:16;36.20;;;15.10;;
5117;SDS011;2578;51.622;7.046;2023-11-21T09:23:43;32.80;;;12.30;;
5117;SDS011;2578;51.622;7.046;2023-11-21T09:26:10;32.97;;;12.70;;
5117;SDS011;2578;51.622;7.046;2023-11-21T09:28:35;32.53;;;12.20;;
5117;SDS011;2578;51.622;7.046;2023-11-21T09:31:02;32.80;;;12.50;;
5117;SDS011;2578;51.622;7.046;2023-11-21T09:33:33;32.60;;;12.10;;
5117;SDS011;2578;51.622;7.046;2023-11-21T09:35:59;41.93;;;17.70;;
5117;SDS011;2578;51.622;7.046;2023-11-21T09:38:25;32.70;;;12.40;;
5117;SDS011;2578;51.622;7.046;2023-11-21T09:40:50;33.40;;;13.00;;
5117;SDS011;2578;51.622;7.046;2023-11-21T09:43:17;33.60;;;12.70;;
5117;SDS011;2578;51.622;7.046;2023-11-21T09:45:47;33.00;;;12.60;;
5117;SDS011;2578;51.622;7.046;2023-11-21T09:48:16;49.13;;;18.03;;
5117;SDS011;2578;51.622;7.046;2023-11-21T09:50:42;33.83;;;13.73;;
5117;SDS011;2578;51.622;7.046;2023-11-21T09:53:18;35.80;;;14.60;;
5117;SDS011;2578;51.622;7.046;2023-11-21T09:55:53;33.40;;;13.37;;
5117;SDS011;2578;51.622;7.046;2023-11-21T09:58:19;33.40;;;13.10;;
5117;SDS011;2578;51.622;7.046;2023-11-21T10:00:47;40.57;;;17.77;;
5117;SDS011;2578;51.622;7.046;2023-11-21T10:03:14;33.20;;;12.80;;
5117;SDS011;2578;51.622;7.046;2023-11-21T10:05:44;36.97;;;14.93;;
5117;SDS011;2578;51.622;7.046;2023-11-21T10:08:11;34.30;;;13.67;;
5117;SDS011;2578;51.622;7.046;2023-11-21T10:10:37;33.97;;;13.57;;
5117;SDS011;2578;51.622;7.046;2023-11-21T10:13:09;33.10;;;12.60;;
5117;SDS011;2578;51.622;7.046;2023-11-21T10:15:37;33.87;;;13.30;;
5117;SDS011;2578;51.622;7.046;2023-11-21T10:18:03;32.60;;;11.60;;
5117;SDS011;2578;51.622;7.046;2023-11-21T10:20:34;34.90;;;13.00;;
5117;SDS011;2578;51.622;7.046;2023-11-21T10:23:00;33.10;;;12.50;;
5117;SDS011;2578;51.622;7.046;2023-11-21T10:25:29;33.50;;;13.17;;
5117;SDS011;2578;51.622;7.046;2023-11-21T10:27:59;34.47;;;13.20;;
5117;SDS011;2578;51.622;7.046;2023-11-21T10:30:36;36.73;;;13.80;;
5117;SDS011;2578;51.622;7.046;2023-11-21T10:33:06;36.27;;;13.33;;
5117;SDS011;2578;51.622;7.046;2023-11-21T10:38:19;39.73;;;15.00;;
5117;SDS011;2578;51.622;7.046;2023-11-21T10:40:49;35.60;;;13.90;;
5117;SDS011;2578;51.622;7.046;2023-11-21T10:43:15;35.50;;;14.33;;
5117;SDS011;2578;51.622;7.046;2023-11-21T10:45:42;38.10;;;12.33;;
5117;SDS011;2578;51.622;7.046;2023-11-21T10:48:14;46.63;;;16.00;;
5117;SDS011;2578;51.622;7.046;2023-11-21T10:50:40;40.60;;;15.30;;
5117;SDS011;2578;51.622;7.046;2023-11-21T10:53:07;36.47;;;13.63;;
5117;SDS011;2578;51.622;7.046;2023-11-21T10:55:33;36.60;;;14.47;;
5117;SDS011;2578;51.622;7.046;2023-11-21T10:58:00;38.87;;;14.20;;
5117;SDS011;2578;51.622;7.046;2023-11-21T11:00:28;53.43;;;18.50;;
5117;SDS011;2578;51.622;7.046;2023-11-21T11:02:54;42.40;;;14.30;;
5117;SDS011;2578;51.622;7.046;2023-11-21T11:05:21;41.60;;;15.53;;
5117;SDS011;2578;51.622;7.046;2023-11-21T11:07:50;48.67;;;14.10;;
5117;SDS011;2578;51.622;7.046;2023-11-21T11:10:25;46.77;;;16.20;;
5117;SDS011;2578;51.622;7.046;2023-11-21T11:12:52;34.37;;;12.40;;
5117;SDS011;2578;51.622;7.046;2023-11-21T11:15:22;36.03;;;12.73;;
5117;SDS011;2578;51.622;7.046;2023-11-21T11:17:48;36.83;;;12.33;;
5117;SDS011;2578;51.622;7.046;2023-11-21T11:20:15;38.97;;;14.47;;
5117;SDS011;2578;51.622;7.046;2023-11-21T11:25:18;46.00;;;18.60;;
5117;SDS011;2578;51.622;7.046;2023-11-21T11:30:44;39.83;;;13.57;;
5117;SDS011;2578;51.622;7.046;2023-11-21T11:36:19;53.47;;;17.40;;
5117;SDS011;2578;51.622;7.046;2023-11-21T11:38:56;36.33;;;14.17;;
5117;SDS011;2578;51.622;7.046;2023-11-21T11:41:28;43.23;;;14.70;;
5117;SDS011;2578;51.622;7.046;2023-11-21T11:43:58;38.33;;;14.43;;
5117;SDS011;2578;51.622;7.046;2023-11-21T11:46:44;39.13;;;14.87;;
5117;SDS011;2578;51.622;7.046;2023-11-21T11:49:24;36.93;;;13.10;;
5117;SDS011;2578;51.622;7.046;2023-11-21T11:54:55;37.00;;;14.00;;
5117;SDS011;2578;51.622;7.046;2023-11-21T11:57:24;38.50;;;12.57;;
5117;SDS011;2578;51.622;7.046;2023-11-21T12:02:40;35.17;;;12.50;;
5117;SDS011;2578;51.622;7.046;2023-11-21T12:05:08;36.50;;;14.90;;
5117;SDS011;2578;51.622;7.046;2023-11-21T12:07:48;35.37;;;12.93;;
5117;SDS011;2578;51.622;7.046;2023-11-21T12:10:20;34.37;;;12.70;;
5117;SDS011;2578;51.622;7.046;2023-11-21T12:12:54;33.83;;;11.70;;
5117;SDS011;2578;51.622;7.046;2023-11-21T12:15:21;36.47;;;13.57;;
5117;SDS011;2578;51.622;7.046;2023-11-21T12:17:47;39.73;;;14.93;;
5117;SDS011;2578;51.622;7.046;2023-11-21T12:20:14;40.23;;;15.30;;
5117;SDS011;2578;51.622;7.046;2023-11-21T12:22:43;39.73;;;16.07;;
5117;SDS011;2578;51.622;7.046;2023-11-21T12:25:12;45.33;;;16.23;;
5117;SDS011;2578;51.622;7.046;2023-11-21T12:27:44;38.30;;;15.63;;
5117;SDS011;2578;51.622;7.046;2023-11-21T12:30:11;33.63;;;11.63;;
5117;SDS011;2578;51.622;7.046;2023-11-21T12:32:45;33.07;;;11.60;;
5117;SDS011;2578;51.622;7.046;2023-11-21T12:35:13;33.63;;;12.07;;
5117;SDS011;2578;51.622;7.046;2023-11-21T12:37:40;36.07;;;12.20;;
5117;SDS011;2578;51.622;7.046;2023-11-21T12:40:08;33.60;;;11.87;;
5117;SDS011;2578;51.622;7.046;2023-11-21T12:42:37;33.40;;;11.60;;
5117;SDS011;2578;51.622;7.046;2023-11-21T12:47:49;34.63;;;13.50;;
5117;SDS011;2578;51.622;7.046;2023-11-21T12:50:19;33.60;;;12.20;;
5117;SDS011;2578;51.622;7.046;2023-11-21T12:52:48;33.50;;;12.30;;
5117;SDS011;2578;51.622;7.046;2023-11-21T12:55:19;44.90;;;15.63;;
5117;SDS011;2578;51.622;7.046;2023-11-21T12:57:59;34.10;;;13.43;;
5117;SDS011;2578;51.622;7.046;2023-11-21T13:00:44;34.53;;;12.43;;
5117;SDS011;2578;51.622;7.046;2023-11-21T13:03:12;33.47;;;12.00;;
5117;SDS011;2578;51.622;7.046;2023-11-21T13:05:42;34.07;;;13.37;;
5117;SDS011;2578;51.622;7.046;2023-11-21T13:08:09;34.00;;;12.67;;
5117;SDS011;2578;51.622;7.046;2023-11-21T13:10:38;44.03;;;17.10;;
5117;SDS011;2578;51.622;7.046;2023-11-21T13:13:07;46.13;;;14.93;;
5117;SDS011;2578;51.622;7.046;2023-11-21T13:15:46;35.23;;;13.73;;
5117;SDS011;2578;51.622;7.046;2023-11-21T13:18:23;34.50;;;12.80;;
5117;SDS011;2578;51.622;7.046;2023-11-21T13:20:52;36.63;;;15.00;;
5117;SDS011;2578;51.622;7.046;2023-11-21T13:23:20;36.53;;;14.60;;
5117;SDS011;2578;51.622;7.046;2023-11-21T13:25:46;34.87;;;13.73;;
5117;SDS011;2578;51.622;7.046;2023-11-21T13:28:12;35.40;;;14.00;;
5117;SDS011;2578;51.622;7.046;2023-11-21T13:30:40;49.03;;;15.20;;
5117;SDS011;2578;51.622;7.046;2023-11-21T13:33:06;33.90;;;13.23;;
5117;SDS011;2578;51.622;7.046;2023-11-21T13:35:34;34.37;;;13.13;;
5117;SDS011;2578;51.622;7.046;2023-11-21T13:40:36;33.47;;;12.97;;
5117;SDS011;2578;51.622;7.046;2023-11-21T13:43:08;34.07;;;13.93;;
5117;SDS011;2578;51.622;7.046;2023-11-21T13:45:37;41.40;;;16.90;;
5117;SDS011;2578;51.622;7.046;2023-11-21T13:48:07;34.57;;;14.70;;
5117;SDS011;2578;51.622;7.046;2023-11-21T13:50:38;46.30;;;17.77;;
5117;SDS011;2578;51.622;7.046;2023-11-21T13:53:09;36.10;;;14.93;;
5117;SDS011;2578;51.622;7.046;2023-11-21T13:55:48;39.80;;;18.10;;
5117;SDS011;2578;51.622;7.046;2023-11-21T13:58:14;35.20;;;15.97;;
5117;SDS011;2578;51.622;7.046;2023-11-21T14:00:48;35.70;;;15.13;;
5117;SDS011;2578;51.622;7.046;2023-11-21T14:03:21;38.23;;;18.47;;
5117;SDS011;2578;51.622;7.046;2023-11-21T14:05:50;34.87;;;15.90;;
5117;SDS011;2578;51.622;7.046;2023-11-21T14:08:22;34.80;;;15.00;;
5117;SDS011;2578;51.622;7.046;2023-11-21T14:10:53;34.23;;;15.20;;
5117;SDS011;2578;51.622;7.046;2023-11-21T14:13:24;34.00;;;14.73;;
5117;SDS011;2578;51.622;7.046;2023-11-21T14:15:50;35.17;;;16.00;;
5117;SDS011;2578;51.622;7.046;2023-11-21T14:18:22;34.90;;;16.07;;
5117;SDS011;2578;51.622;7.046;2023-11-21T14:21:15;34.80;;;15.97;;
5117;SDS011;2578;51.622;7.046;2023-11-21T14:23:41;34.70;;;15.50;;
5117;SDS011;2578;51.622;7.046;2023-11-21T14:26:08;34.60;;;15.60;;
5117;SDS011;2578;51.622;7.046;2023-11-21T14:28:33;35.00;;;15.90;;
5117;SDS011;2578;51.622;7.046;2023-11-21T14:31:01;35.03;;;16.20;;
5117;SDS011;2578;51.622;7.046;2023-11-21T14:33:28;37.10;;;17.60;;
5117;SDS011;2578;51.622;7.046;2023-11-21T14:35:53;36.07;;;17.17;;
5117;SDS011;2578;51.622;7.046;2023-11-21T14:38:19;36.20;;;17.30;;
5117;SDS011;2578;51.622;7.046;2023-11-21T14:40:44;35.90;;;16.90;;
5117;SDS011;2578;51.622;7.046;2023-11-21T14:43:11;36.23;;;17.40;;
5117;SDS011;2578;51.622;7.046;2023-11-21T14:45:37;36.30;;;17.23;;
5117;SDS011;2578;51.622;7.046;2023-11-21T14:48:04;40.77;;;19.87;;
5117;SDS011;2578;51.622;7.046;2023-11-21T14:50:29;41.23;;;18.50;;
5117;SDS011;2578;51.622;7.046;2023-11-21T14:53:10;38.23;;;18.97;;
5117;SDS011;2578;51.622;7.046;2023-11-21T14:55:40;44.93;;;21.57;;
5117;SDS011;2578;51.622;7.046;2023-11-21T14:58:15;37.43;;;17.47;;
5117;SDS011;2578;51.622;7.046;2023-11-21T15:00:48;36.70;;;17.40;;
5117;SDS011;2578;51.622;7.046;2023-11-21T15:03:16;39.50;;;18.47;;
5117;SDS011;2578;51.622;7.046;2023-11-21T15:05:57;40.63;;;19.17;;
5117;SDS011;2578;51.622;7.046;2023-11-21T15:08:24;37.50;;;18.23;;
5117;SDS011;2578;51.622;7.046;2023-11-21T15:10:55;37.83;;;20.27;;
5117;SDS011;2578;51.622;7.046;2023-11-21T15:13:21;36.60;;;17.60;;